Terminal Aerodrome Forecast
Issued by NWS

Home | Current Version | Previous Version | Text Only | Print | Product List | Glossary On
Versions: 1 2 3 4 5 6 7 8 9 10 11 12
000
FTUS43 KGLD 241120
TAFMCK
TAF
KMCK 241120Z 2412/2512 16009KT P6SM SKC
     FM241300 19007KT P6SM OVC200
     FM241600 30014G22KT P6SM SCT200
     FM250000 33010KT P6SM SCT200
     FM250200 02008KT P6SM BKN150
     FM250400 05008KT P6SM BKN120=

USA.gov is the U.S. government's official web portal to all federal, state and local government web resources and services.